Time;durP1;ratioP1;P1;durP2;ratioP2;P2;SDS_P1;SDS_P2;PMS_P1;PMS_P2;Temp;Humidity;BMP_temperature;BMP_pressure;BME280_temperature;BME280_humidity;BME280_pressure;Samples;Min_cycle;Max_cycle;Signal;HPM_P1;HPM_P2
2021/12/07 00:01:41;;;;;;;9.95;7.68;;;1.20;99.90;;;;;;5079422;28;20020;-65
2021/12/07 00:04:08;;;;;;;9.75;6.88;;;1.20;99.90;;;;;;5082409;28;20114;-65
2021/12/07 00:06:35;;;;;;;10.02;6.63;;;1.20;99.90;;;;;;5076577;28;20020;-65
2021/12/07 00:09:01;;;;;;;11.30;7.82;;;1.20;99.90;;;;;;5076512;28;20050;-65
2021/12/07 00:11:29;;;;;;;8.88;6.80;;;1.20;99.90;;;;;;5079683;28;20107;-65
2021/12/07 00:13:57;;;;;;;9.60;6.78;;;1.20;99.90;;;;;;5073529;28;20023;-66
2021/12/07 00:16:24;;;;;;;10.05;7.57;;;1.20;99.90;;;;;;5078185;28;20472;-65
2021/12/07 00:18:50;;;;;;;10.55;7.30;;;1.20;99.90;;;;;;5081631;28;20024;-65
2021/12/07 00:21:17;;;;;;;11.02;7.45;;;1.20;99.90;;;;;;5064593;28;20024;-65
2021/12/07 00:23:45;;;;;;;7.95;5.78;;;1.30;99.90;;;;;;5066819;28;20028;-65
2021/12/07 00:26:12;;;;;;;7.63;5.68;;;1.30;99.90;;;;;;5079160;28;20040;-65
2021/12/07 00:28:39;;;;;;;9.65;6.75;;;1.30;99.90;;;;;;5079110;28;20035;-65
2021/12/07 00:31:13;;;;;;;10.60;7.85;;;1.40;99.90;;;;;;5079111;28;20027;-65
2021/12/07 00:33:49;;;;;;;13.45;9.55;;;1.40;99.90;;;;;;5078914;28;20031;-65
2021/12/07 00:36:15;;;;;;;11.68;8.45;;;1.40;99.90;;;;;;5078916;28;20415;-64
2021/12/07 00:38:41;;;;;;;9.90;7.53;;;1.50;99.90;;;;;;5081606;28;20025;-65
2021/12/07 00:41:07;;;;;;;12.55;8.57;;;1.50;99.90;;;;;;5084554;28;20028;-65
2021/12/07 00:43:33;;;;;;;13.63;8.45;;;1.50;99.90;;;;;;5090080;28;20024;-65
2021/12/07 00:46:01;;;;;;;11.43;8.13;;;1.60;99.90;;;;;;5085041;28;20025;-65
2021/12/07 00:48:27;;;;;;;11.57;8.23;;;1.60;99.90;;;;;;5080003;28;20484;-65
2021/12/07 00:50:54;;;;;;;11.82;8.52;;;1.60;99.90;;;;;;5083996;28;20020;-65
2021/12/07 00:53:22;;;;;;;10.95;7.57;;;1.70;99.90;;;;;;5081240;28;20095;-65
2021/12/07 00:55:50;;;;;;;10.35;7.47;;;1.70;99.90;;;;;;5080337;28;20464;-65
2021/12/07 00:58:23;;;;;;;10.32;7.50;;;1.70;99.90;;;;;;5078454;28;20086;-65
2021/12/07 01:01:05;;;;;;;9.77;7.03;;;1.70;99.90;;;;;;5078130;28;20464;-65
2021/12/07 01:03:32;;;;;;;11.65;7.95;;;1.80;99.90;;;;;;5081158;28;20021;-65
2021/12/07 01:24:54;;;;;;;8.90;6.32;;;1.90;99.90;;;;;;5078110;28;20100;-65
2021/12/07 01:27:20;;;;;;;11.02;8.13;;;2.00;99.90;;;;;;5086011;28;20460;-65
2021/12/07 01:29:54;;;;;;;11.75;8.73;;;2.00;99.90;;;;;;5062512;28;20154;-65
2021/12/07 01:49:53;;;;;;;13.10;9.55;;;2.10;99.90;;;;;;5064078;28;20093;-65
2021/12/07 02:01:53;;;;;;;13.13;9.63;;;2.20;99.90;;;;;;5072164;28;20388;-65
2021/12/07 02:04:18;;;;;;;16.02;10.20;;;2.20;99.90;;;;;;5071543;28;20494;-65
2021/12/07 02:06:44;;;;;;;15.95;10.57;;;2.20;99.90;;;;;;5079386;28;20020;-65
2021/12/07 02:09:12;;;;;;;15.85;10.68;;;2.30;99.90;;;;;;5076851;28;20128;-65
2021/12/07 02:11:45;;;;;;;17.00;11.50;;;2.30;99.90;;;;;;5075084;28;20427;-65
2021/12/07 02:14:17;;;;;;;19.23;12.63;;;2.40;99.90;;;;;;5080988;28;20016;-65
2021/12/07 02:16:48;;;;;;;23.23;13.43;;;2.40;99.90;;;;;;5080065;28;20100;-65
2021/12/07 02:19:15;;;;;;;20.23;12.73;;;2.50;99.90;;;;;;5064848;28;20024;-65
2021/12/07 02:21:41;;;;;;;22.33;11.85;;;2.60;99.90;;;;;;5079857;28;20024;-65
2021/12/07 02:24:06;;;;;;;20.98;12.27;;;2.70;99.90;;;;;;5082031;28;20024;-65
2021/12/07 02:26:32;;;;;;;17.23;11.88;;;2.70;99.90;;;;;;5083206;28;20042;-65
2021/12/07 02:28:58;;;;;;;23.27;13.63;;;2.80;99.90;;;;;;5074301;28;20016;-66
2021/12/07 02:31:25;;;;;;;20.92;14.57;;;2.80;99.90;;;;;;5076928;28;20441;-65
2021/12/07 02:33:51;;;;;;;18.23;13.63;;;2.80;99.90;;;;;;5076138;28;20115;-65
2021/12/07 02:36:17;;;;;;;18.80;13.18;;;2.80;99.90;;;;;;5082409;28;20099;-65
2021/12/07 02:38:42;;;;;;;19.83;13.18;;;2.80;99.90;;;;;;5074200;28;20060;-65
2021/12/07 02:41:08;;;;;;;23.20;14.20;;;2.70;99.90;;;;;;5053278;28;20476;-65
2021/12/07 02:43:34;;;;;;;19.30;13.55;;;2.80;99.90;;;;;;5061685;28;20024;-65
2021/12/07 02:46:00;;;;;;;22.65;15.05;;;2.70;99.90;;;;;;5092118;28;20455;-65
2021/12/07 02:48:26;;;;;;;22.00;14.30;;;2.70;99.90;;;;;;5090313;28;20012;-65
2021/12/07 02:50:52;;;;;;;21.60;13.30;;;2.80;99.90;;;;;;5063629;28;20419;-65
2021/12/07 02:53:25;;;;;;;17.73;12.00;;;2.80;99.90;;;;;;5089650;28;20024;-65
2021/12/07 02:55:51;;;;;;;22.63;12.82;;;2.80;99.90;;;;;;5081305;28;20013;-65
2021/12/07 02:58:17;;;;;;;20.58;12.10;;;2.80;99.90;;;;;;5073906;28;20021;-65
2021/12/07 03:00:50;;;;;;;15.90;12.30;;;2.90;99.90;;;;;;5075058;28;20028;-65
2021/12/07 03:03:16;;;;;;;21.88;12.25;;;2.80;99.90;;;;;;5062004;28;20115;-65
2021/12/07 03:06:04;;;;;;;17.15;11.45;;;2.80;99.90;;;;;;5076253;28;20016;-65
2021/12/07 03:28:06;;;;;;;18.45;10.43;;;2.80;99.90;;;;;;5062504;28;20171;-65
2021/12/07 03:30:32;;;;;;;19.48;11.13;;;2.80;99.90;;;;;;5065076;28;20051;-65
2021/12/07 03:32:59;;;;;;;20.60;12.57;;;2.80;99.90;;;;;;5080542;28;20044;-65
2021/12/07 03:35:26;;;;;;;18.25;11.13;;;2.80;99.90;;;;;;5076455;28;20498;-66
2021/12/07 03:37:52;;;;;;;16.58;10.27;;;2.80;99.90;;;;;;5079694;28;20016;-66
2021/12/07 03:40:18;;;;;;;14.73;10.02;;;2.80;99.90;;;;;;5080806;28;20036;-65
2021/12/07 03:42:44;;;;;;;15.32;9.30;;;2.80;99.90;;;;;;5079087;28;20024;-65
2021/12/07 03:45:10;;;;;;;11.98;8.18;;;2.80;99.90;;;;;;5079437;28;20027;-65
2021/12/07 03:47:36;;;;;;;15.32;8.63;;;2.80;99.90;;;;;;5077440;28;20052;-65
2021/12/07 03:50:03;;;;;;;15.20;8.57;;;2.80;99.90;;;;;;5089592;28;20024;-65
2021/12/07 03:52:28;;;;;;;13.82;8.07;;;2.80;99.90;;;;;;5078121;28;20012;-65
2021/12/07 03:54:54;;;;;;;10.82;6.68;;;2.80;99.90;;;;;;5064392;28;20026;-65
2021/12/07 03:57:19;;;;;;;12.65;7.03;;;2.80;99.90;;;;;;5064704;28;20023;-65
2021/12/07 03:59:45;;;;;;;15.45;6.80;;;2.80;99.90;;;;;;5081282;28;20028;-65
2021/12/07 04:02:11;;;;;;;17.52;6.72;;;2.80;99.90;;;;;;5086214;28;20392;-65
2021/12/07 04:04:37;;;;;;;14.90;6.10;;;2.80;99.90;;;;;;5076963;28;20088;-65
2021/12/07 04:07:04;;;;;;;15.25;6.97;;;2.80;99.90;;;;;;5078527;28;20016;-65
2021/12/07 04:09:31;;;;;;;13.38;5.75;;;2.80;99.90;;;;;;5087185;28;20032;-65
2021/12/07 04:11:56;;;;;;;11.13;5.20;;;2.80;99.90;;;;;;5080249;28;20051;-65
2021/12/07 04:14:22;;;;;;;13.23;4.97;;;2.80;99.90;;;;;;5076217;28;20013;-65
2021/12/07 04:16:47;;;;;;;11.07;5.03;;;2.80;99.90;;;;;;5081201;28;20016;-65
2021/12/07 04:19:13;;;;;;;9.75;4.35;;;2.80;99.90;;;;;;5085680;28;20048;-66
2021/12/07 04:21:38;;;;;;;9.35;3.70;;;2.80;99.90;;;;;;5066455;28;20024;-65
2021/12/07 04:24:04;;;;;;;9.57;3.80;;;2.80;99.90;;;;;;5078011;28;20035;-65
2021/12/07 04:26:31;;;;;;;8.05;3.20;;;2.80;99.90;;;;;;5074859;28;20027;-65
2021/12/07 04:28:57;;;;;;;9.60;4.63;;;2.90;99.90;;;;;;5078051;28;20024;-66
2021/12/07 04:31:22;;;;;;;9.38;3.53;;;2.80;99.90;;;;;;5079183;28;20012;-65
2021/12/07 04:34:11;;;;;;;11.90;3.63;;;2.80;99.90;;;;;;5076086;28;20020;-65
2021/12/07 04:36:36;;;;;;;11.82;3.75;;;2.90;99.90;;;;;;5074397;28;20020;-65
2021/12/07 04:39:03;;;;;;;10.10;3.72;;;2.80;99.90;;;;;;5065947;28;20034;-65
2021/12/07 04:41:32;;;;;;;7.45;2.97;;;2.80;99.90;;;;;;5058285;28;20143;-65
2021/12/07 04:43:58;;;;;;;6.05;2.50;;;2.90;99.90;;;;;;5075777;28;20380;-65
2021/12/07 04:46:34;;;;;;;5.05;2.50;;;2.90;99.90;;;;;;5073312;28;20110;-65
2021/12/07 04:59:57;;;;;;;12.57;2.88;;;2.90;99.90;;;;;;5076976;28;20078;-65
2021/12/07 05:02:22;;;;;;;6.75;2.20;;;2.90;99.90;;;;;;5079842;28;20020;-65
2021/12/07 05:04:48;;;;;;;5.80;2.45;;;2.90;99.90;;;;;;5074226;28;20054;-65
2021/12/07 05:07:39;;;;;;;8.05;2.60;;;2.90;99.90;;;;;;5078404;28;20028;-65
2021/12/07 05:15:01;;;;;;;7.38;3.45;;;2.90;99.90;;;;;;5073405;28;20473;-65
2021/12/07 05:17:55;;;;;;;8.90;2.38;;;2.90;99.90;;;;;;5085661;28;20452;-65
2021/12/07 05:39:29;;;;;;;10.38;3.05;;;2.80;99.90;;;;;;5076665;28;20067;-65
2021/12/07 05:41:56;;;;;;;12.65;3.15;;;2.90;99.90;;;;;;5078227;28;20085;-65
2021/12/07 05:44:22;;;;;;;16.85;3.22;;;2.90;99.90;;;;;;5083004;28;20467;-65
2021/12/07 05:46:47;;;;;;;8.43;3.22;;;2.90;99.90;;;;;;5077592;28;20033;-66
2021/12/07 05:49:13;;;;;;;10.10;3.13;;;2.90;99.90;;;;;;5074561;28;20047;-65
2021/12/07 05:51:38;;;;;;;12.52;2.53;;;2.90;99.90;;;;;;5074685;28;20468;-66
2021/12/07 05:54:04;;;;;;;16.08;3.13;;;2.90;99.90;;;;;;5078653;28;20054;-65
2021/12/07 05:56:45;;;;;;;14.32;3.10;;;2.80;99.90;;;;;;5078431;28;20456;-65
2021/12/07 05:59:10;;;;;;;12.57;3.10;;;2.80;99.90;;;;;;5082702;28;20051;-66
2021/12/07 06:01:36;;;;;;;12.07;2.53;;;2.80;99.90;;;;;;5086246;28;20048;-65
2021/12/07 06:04:01;;;;;;;11.55;2.65;;;2.70;99.90;;;;;;5072903;28;20379;-65
2021/12/07 06:06:27;;;;;;;14.43;3.92;;;2.70;99.90;;;;;;5080915;28;20505;-66
2021/12/07 06:08:53;;;;;;;10.45;2.58;;;2.70;99.90;;;;;;5065240;28;20074;-65
2021/12/07 06:11:22;;;;;;;9.02;2.22;;;2.70;99.90;;;;;;5080876;28;20041;-65
2021/12/07 06:13:47;;;;;;;9.50;2.30;;;2.70;99.90;;;;;;5084373;28;20086;-65
2021/12/07 06:16:15;;;;;;;12.98;3.13;;;2.70;99.90;;;;;;5077191;28;20488;-66
2021/12/07 06:18:41;;;;;;;11.77;2.53;;;2.70;99.90;;;;;;5077187;28;20017;-66
2021/12/07 06:21:07;;;;;;;8.30;2.33;;;2.70;99.90;;;;;;5077235;28;20133;-66
2021/12/07 06:23:32;;;;;;;9.35;2.17;;;2.80;99.90;;;;;;5071562;28;20046;-65
2021/12/07 06:25:59;;;;;;;8.30;2.00;;;2.90;99.90;;;;;;5061772;28;20020;-65
2021/12/07 06:28:36;;;;;;;10.85;2.47;;;2.90;99.90;;;;;;5070795;28;20029;-65
2021/12/07 06:31:01;;;;;;;13.15;4.18;;;2.90;99.90;;;;;;5092429;28;20056;-66
2021/12/07 06:33:27;;;;;;;16.10;3.63;;;2.90;99.90;;;;;;5092806;28;20062;-65
2021/12/07 06:35:59;;;;;;;8.40;2.33;;;2.90;99.90;;;;;;5074676;28;20387;-65
2021/12/07 06:38:31;;;;;;;10.13;2.45;;;2.90;99.90;;;;;;5074161;28;20111;-65
2021/12/07 06:41:22;;;;;;;13.57;2.55;;;3.00;99.90;;;;;;5091089;28;20024;-65
2021/12/07 06:43:48;;;;;;;12.00;2.70;;;3.00;99.90;;;;;;5076204;28;20037;-65
2021/12/07 06:46:14;;;;;;;10.10;2.25;;;2.90;99.90;;;;;;5072618;28;20035;-65
2021/12/07 06:48:39;;;;;;;11.13;2.47;;;2.90;99.90;;;;;;5072443;28;20027;-65
2021/12/07 06:51:05;;;;;;;13.48;2.90;;;2.90;99.90;;;;;;5066944;28;20020;-66
2021/12/07 06:53:35;;;;;;;15.15;3.28;;;2.80;99.90;;;;;;5093357;28;20426;-66
2021/12/07 06:56:06;;;;;;;8.73;2.67;;;2.80;99.90;;;;;;5091941;28;20476;-65
2021/12/07 06:58:32;;;;;;;6.10;2.47;;;2.70;99.90;;;;;;5096667;28;20122;-66
2021/12/07 07:00:57;;;;;;;8.63;2.70;;;2.70;99.90;;;;;;5096709;28;20515;-65
2021/12/07 07:03:23;;;;;;;12.98;2.90;;;2.70;99.90;;;;;;5096522;28;20024;-66
2021/12/07 07:05:48;;;;;;;14.90;3.28;;;2.70;99.90;;;;;;5096656;28;20030;-66
2021/12/07 07:08:15;;;;;;;13.30;2.78;;;2.70;99.90;;;;;;5096426;28;20028;-65
2021/12/07 07:10:41;;;;;;;11.13;3.22;;;2.60;99.90;;;;;;5078040;28;20450;-66
2021/12/07 07:13:07;;;;;;;16.35;3.25;;;2.70;99.90;;;;;;5096523;28;20036;-66
2021/12/07 07:15:32;;;;;;;12.18;2.75;;;2.70;99.90;;;;;;5096377;28;20371;-65
2021/12/07 07:17:58;;;;;;;11.07;2.95;;;2.70;99.90;;;;;;5096335;28;20498;-66
2021/12/07 07:20:24;;;;;;;9.73;2.22;;;2.70;99.90;;;;;;5096404;28;20020;-65
2021/12/07 07:22:49;;;;;;;10.25;2.67;;;2.80;99.90;;;;;;5096202;28;20081;-66
2021/12/07 07:25:15;;;;;;;13.95;2.95;;;2.80;99.90;;;;;;5096165;28;20031;-65
2021/12/07 07:27:42;;;;;;;13.50;3.42;;;2.70;99.90;;;;;;5096065;28;20070;-66
2021/12/07 07:30:11;;;;;;;14.10;3.42;;;2.70;99.90;;;;;;5096198;28;20084;-66
2021/12/07 07:32:36;;;;;;;13.00;3.55;;;2.70;99.90;;;;;;5096438;28;20016;-65
2021/12/07 07:35:03;;;;;;;12.77;2.85;;;2.70;99.90;;;;;;5096024;28;20082;-65
2021/12/07 07:37:29;;;;;;;12.48;4.05;;;2.70;99.90;;;;;;5095933;28;20122;-66
2021/12/07 07:39:55;;;;;;;15.65;3.05;;;2.70;99.90;;;;;;5095529;28;20062;-65
2021/12/07 07:42:20;;;;;;;10.52;3.10;;;2.70;99.90;;;;;;5094378;28;20028;-65
2021/12/07 07:44:46;;;;;;;10.00;3.60;;;2.60;99.90;;;;;;5093584;28;20157;-65
2021/12/07 07:47:26;;;;;;;11.82;3.53;;;2.60;99.90;;;;;;5091737;28;20055;-65
2021/12/07 07:49:51;;;;;;;13.60;3.90;;;2.70;99.90;;;;;;5084851;28;20028;-65
2021/12/07 07:52:17;;;;;;;13.68;3.92;;;2.70;99.90;;;;;;5092000;28;20028;-65
2021/12/07 07:54:43;;;;;;;12.77;4.13;;;2.70;99.90;;;;;;5092239;28;20027;-66
2021/12/07 07:57:08;;;;;;;16.48;4.72;;;2.70;99.90;;;;;;5090963;28;20431;-65
2021/12/07 07:59:36;;;;;;;9.98;4.50;;;2.70;99.90;;;;;;5083316;28;20024;-65
2021/12/07 08:02:02;;;;;;;16.30;6.45;;;2.70;99.90;;;;;;5094275;28;20028;-65
2021/12/07 08:04:48;;;;;;;;;;;;;;;;;;;;;
2021/12/07 08:07:14;;;;;;;16.05;5.82;;;2.80;99.90;;;;;;5095627;28;20024;-66
2021/12/07 08:09:40;;;;;;;15.38;6.35;;;2.70;99.90;;;;;;5077063;28;20120;-66
2021/12/07 08:12:09;;;;;;;19.48;6.88;;;2.70;99.90;;;;;;5095411;28;20028;-65
2021/12/07 08:15:08;;;;;;;17.67;6.13;;;2.80;99.90;;;;;;5094816;28;20025;-65
2021/12/07 08:18:00;;;;;;;18.10;6.28;;;2.80;99.90;;;;;;5085280;28;20475;-65
2021/12/07 08:20:26;;;;;;;17.33;7.00;;;2.80;99.90;;;;;;5095277;28;20476;-65
2021/12/07 08:22:52;;;;;;;18.52;7.00;;;2.80;99.90;;;;;;5095194;28;20035;-66
2021/12/07 08:25:18;;;;;;;19.75;7.03;;;2.80;99.90;;;;;;5093860;28;20028;-66
2021/12/07 08:27:43;;;;;;;19.77;6.95;;;2.90;99.90;;;;;;5075107;28;20077;-66
2021/12/07 08:30:12;;;;;;;17.85;6.47;;;2.90;99.90;;;;;;5085357;28;20034;-65
2021/12/07 08:32:44;;;;;;;26.05;8.05;;;3.00;99.90;;;;;;5092389;28;20058;-65
2021/12/07 08:35:11;;;;;;;22.08;6.68;;;3.00;99.90;;;;;;5074865;28;20024;-66
2021/12/07 08:37:36;;;;;;;20.30;7.03;;;3.00;99.90;;;;;;5076725;28;20016;-66
2021/12/07 08:40:04;;;;;;;24.90;8.38;;;3.10;99.90;;;;;;5094239;28;20157;-65
2021/12/07 08:42:30;;;;;;;18.65;6.90;;;3.10;99.90;;;;;;5094650;28;20111;-66
2021/12/07 08:44:55;;;;;;;21.85;7.53;;;3.10;99.90;;;;;;5092347;28;20122;-66
2021/12/07 08:47:21;;;;;;;20.17;7.50;;;3.20;99.90;;;;;;5094706;28;20475;-65
2021/12/07 08:49:46;;;;;;;16.38;7.20;;;3.20;99.90;;;;;;5094263;28;20110;-66
2021/12/07 08:52:16;;;;;;;19.10;7.85;;;3.30;99.90;;;;;;5076409;28;20039;-65
2021/12/07 09:00:31;;;;;;;19.40;6.78;;;3.40;99.90;;;;;;5086763;28;20580;-65
2021/12/07 09:02:59;;;;;;;24.00;7.20;;;3.30;99.90;;;;;;5093496;28;20024;-66
2021/12/07 09:05:31;;;;;;;20.02;6.25;;;3.30;99.90;;;;;;5093991;28;20041;-65
2021/12/07 09:07:57;;;;;;;17.85;6.43;;;3.30;99.90;;;;;;5094215;28;20048;-66
2021/12/07 09:14:17;;;;;;;22.70;7.03;;;3.30;99.90;;;;;;5093690;28;20039;-66
2021/12/07 09:16:44;;;;;;;22.48;6.38;;;3.30;99.90;;;;;;5039920;28;20036;-65
2021/12/07 09:19:10;;;;;;;25.10;7.18;;;3.30;99.90;;;;;;5094046;28;20055;-66
2021/12/07 09:28:57;;;;;;;23.77;5.97;;;3.70;99.90;;;;;;4993328;28;20048;-66
2021/12/07 09:31:24;;;;;;;19.40;7.97;;;3.80;99.90;;;;;;5093892;28;20028;-66
2021/12/07 09:33:49;;;;;;;18.08;5.75;;;3.80;99.90;;;;;;5073471;28;20104;-65
2021/12/07 09:36:22;;;;;;;20.00;5.70;;;3.90;99.90;;;;;;5075389;28;20078;-66
2021/12/07 09:42:20;;;;;;;19.88;5.97;;;4.10;99.90;;;;;;5093761;28;20036;-66
2021/12/07 09:44:46;;;;;;;19.00;5.68;;;4.20;99.90;;;;;;5093077;28;20031;-66
2021/12/07 09:47:23;;;;;;;22.85;6.18;;;4.20;99.90;;;;;;5075356;28;20123;-65
2021/12/07 09:49:56;;;;;;;22.88;5.82;;;4.50;99.90;;;;;;5093291;28;20024;-65
2021/12/07 10:02:55;;;;;;;13.10;4.07;;;5.40;99.90;;;;;;4885309;29;20083;-66
2021/12/07 10:05:24;;;;;;;15.25;4.78;;;5.60;99.90;;;;;;4895676;29;20033;-66
2021/12/07 10:07:51;;;;;;;13.80;4.50;;;5.70;99.90;;;;;;4932314;29;20039;-66
2021/12/07 10:10:52;;;;;;;;;;;;;;;;;;;;;
2021/12/07 10:13:17;;;;;;;12.00;3.97;;;6.50;99.90;;;;;;5093017;28;20039;-66
2021/12/07 10:15:44;;;;;;;12.65;3.85;;;6.60;99.90;;;;;;5074643;28;20122;-66
2021/12/07 10:18:22;;;;;;;12.05;3.17;;;6.70;99.90;;;;;;5074890;28;20028;-66
2021/12/07 10:20:54;;;;;;;9.88;3.55;;;6.90;99.90;;;;;;5092335;28;20032;-66
2021/12/07 10:23:20;;;;;;;12.15;3.60;;;7.20;99.70;;;;;;5073135;28;20082;-66
2021/12/07 10:25:51;;;;;;;11.38;3.35;;;7.40;99.00;;;;;;5072591;28;20428;-66
2021/12/07 10:28:25;;;;;;;14.90;3.35;;;7.70;98.40;;;;;;5071914;28;20426;-67
2021/12/07 10:30:51;;;;;;;7.07;1.98;;;8.00;97.20;;;;;;5054497;28;20055;-66
2021/12/07 10:33:35;;;;;;;11.75;2.80;;;7.90;96.70;;;;;;5074568;28;20103;-66
2021/12/07 10:36:22;;;;;;;10.45;2.80;;;8.00;96.40;;;;;;5074807;28;20047;-67
2021/12/07 10:38:53;;;;;;;8.90;2.53;;;7.80;96.20;;;;;;5092633;28;20032;-67
2021/12/07 10:44:22;;;;;;;12.05;3.25;;;7.70;96.70;;;;;;5092510;28;20139;-66
2021/12/07 10:46:52;;;;;;;11.07;3.47;;;7.90;96.50;;;;;;5091968;28;20040;-67
2021/12/07 10:49:17;;;;;;;11.82;3.15;;;8.00;96.00;;;;;;5088829;28;20074;-66
2021/12/07 10:52:41;;;;;;;;;;;;;;;;;;;;;
2021/12/07 10:59:08;;;;;;;12.88;3.30;;;8.70;94.70;;;;;;5008090;28;20133;-67
2021/12/07 11:01:40;;;;;;;13.32;3.17;;;8.30;94.30;;;;;;5010384;28;20029;-67
2021/12/07 11:04:17;;;;;;;9.55;2.92;;;8.10;94.90;;;;;;5042553;28;20120;-67
2021/12/07 11:07:10;;;;;;;9.90;3.20;;;8.50;94.90;;;;;;5073506;28;20055;-66
2021/12/07 11:15:37;;;;;;;7.95;2.70;;;9.40;92.50;;;;;;5092669;28;20541;-66
2021/12/07 11:18:09;;;;;;;12.50;3.88;;;9.30;92.50;;;;;;5092266;28;20457;-67
2021/12/07 11:20:37;;;;;;;13.73;3.63;;;9.20;92.20;;;;;;5092108;28;20078;-66
2021/12/07 11:23:13;;;;;;;11.88;3.20;;;9.10;92.20;;;;;;5091411;28;20099;-67
2021/12/07 11:31:31;;;;;;;11.48;2.72;;;9.70;91.70;;;;;;5088539;28;20057;-65
2021/12/07 11:34:21;;;;;;;11.30;3.33;;;9.60;91.40;;;;;;5088088;28;20066;-67
2021/12/07 11:36:53;;;;;;;13.05;3.28;;;9.70;91.10;;;;;;5069566;28;20039;-66
2021/12/07 11:39:22;;;;;;;11.48;3.00;;;10.10;91.20;;;;;;5066513;28;20094;-67
2021/12/07 11:42:23;;;;;;;11.32;2.72;;;10.40;90.90;;;;;;5080701;28;20035;-66
2021/12/07 11:44:53;;;;;;;9.00;2.63;;;11.10;89.30;;;;;;5071470;28;20449;-67
2021/12/07 11:47:31;;;;;;;11.52;2.72;;;12.20;86.70;;;;;;5068497;28;20020;-66
2021/12/07 11:50:01;;;;;;;7.82;2.90;;;12.90;82.30;;;;;;5082567;28;20042;-66
2021/12/07 11:52:27;;;;;;;6.28;2.42;;;14.00;79.50;;;;;;5059352;28;20024;-66
2021/12/07 11:54:53;;;;;;;7.70;2.30;;;14.90;75.60;;;;;;5068346;28;20024;-66
2021/12/07 11:57:19;;;;;;;10.93;2.72;;;15.90;70.40;;;;;;5081489;28;20103;-67
2021/12/07 11:59:47;;;;;;;9.73;3.00;;;15.80;65.60;;;;;;5089759;28;20024;-67
2021/12/07 12:02:14;;;;;;;9.10;3.20;;;15.70;65.40;;;;;;5093159;28;20411;-67
2021/12/07 12:04:59;;;;;;;7.82;2.50;;;15.80;64.20;;;;;;5090876;28;20028;-67
2021/12/07 12:07:41;;;;;;;8.70;2.60;;;16.00;66.00;;;;;;5093330;28;20032;-67
2021/12/07 12:10:12;;;;;;;10.45;3.85;;;16.30;62.20;;;;;;5093309;28;20068;-67
2021/12/07 12:13:07;;;;;;;8.15;2.22;;;15.90;62.10;;;;;;5072455;28;20024;-67
2021/12/07 12:15:46;;;;;;;8.48;3.05;;;15.80;63.20;;;;;;5071775;28;20047;-67
2021/12/07 12:18:22;;;;;;;8.43;3.33;;;15.50;61.20;;;;;;5076932;28;20124;-67
2021/12/07 12:21:22;;;;;;;8.38;2.92;;;15.10;63.10;;;;;;5094985;28;20077;-67
2021/12/07 12:24:20;;;;;;;9.18;2.75;;;15.20;62.50;;;;;;5092599;28;20020;-67
2021/12/07 12:26:47;;;;;;;16.67;6.13;;;14.70;62.90;;;;;;5091234;28;20032;-67
2021/12/07 12:29:42;;;;;;;10.25;3.40;;;14.20;63.80;;;;;;5093105;28;20278;-67
2021/12/07 12:32:08;;;;;;;9.15;3.28;;;13.80;64.10;;;;;;5075263;28;20121;-66
2021/12/07 12:34:37;;;;;;;8.57;3.65;;;13.30;66.30;;;;;;5072254;28;20016;-67
2021/12/07 12:37:23;;;;;;;10.25;3.13;;;13.40;67.60;;;;;;5092222;28;20020;-67
2021/12/07 12:39:56;;;;;;;7.28;2.72;;;13.10;66.40;;;;;;5092263;28;20336;-67
2021/12/07 12:42:43;;;;;;;10.82;2.58;;;12.90;67.30;;;;;;5090504;28;20024;-67
2021/12/07 12:45:12;;;;;;;9.05;2.60;;;12.80;68.00;;;;;;5092690;28;20396;-67
2021/12/07 12:47:39;;;;;;;13.10;3.47;;;12.60;68.30;;;;;;5092698;28;20020;-67
2021/12/07 12:50:34;;;;;;;8.55;3.00;;;12.50;69.90;;;;;;5091925;28;20024;-66
2021/12/07 12:53:07;;;;;;;8.93;3.20;;;12.30;69.30;;;;;;5068276;28;20029;-67
2021/12/07 12:59:42;;;;;;;9.00;2.78;;;11.20;72.30;;;;;;4986068;28;20043;-67
2021/12/07 13:05:36;;;;;;;13.15;3.15;;;10.60;75.30;;;;;;5071972;28;20043;-67
2021/12/07 13:08:13;;;;;;;10.00;2.88;;;10.20;76.20;;;;;;5074394;28;20028;-67
2021/12/07 13:10:57;;;;;;;7.93;2.92;;;10.00;76.60;;;;;;5092201;28;20047;-66
2021/12/07 13:13:34;;;;;;;14.68;3.20;;;9.60;77.30;;;;;;5091309;28;20020;-67
2021/12/07 13:16:14;;;;;;;14.30;3.38;;;9.30;78.50;;;;;;5075603;28;20504;-68
2021/12/07 13:18:41;;;;;;;12.30;3.20;;;8.90;79.50;;;;;;5093767;28;20024;-67
2021/12/07 13:21:29;;;;;;;10.90;2.85;;;8.60;81.00;;;;;;5093950;28;20035;-67
2021/12/07 13:23:59;;;;;;;13.27;3.60;;;8.30;82.50;;;;;;5075183;28;20039;-66
2021/12/07 13:26:25;;;;;;;12.23;3.22;;;8.10;84.10;;;;;;5093883;28;20024;-67
2021/12/07 13:29:16;;;;;;;14.45;5.53;;;7.90;85.10;;;;;;5093618;28;20032;-68
2021/12/07 13:31:47;;;;;;;12.52;3.40;;;7.80;86.00;;;;;;5075494;28;20024;-67
2021/12/07 13:34:15;;;;;;;15.80;4.30;;;7.50;87.30;;;;;;5091963;28;20131;-66
2021/12/07 13:37:15;;;;;;;14.82;3.72;;;7.40;88.20;;;;;;5065647;28;20036;-66
2021/12/07 13:42:47;;;;;;;9.63;2.50;;;7.20;90.10;;;;;;5073599;28;19908;-67
2021/12/07 13:45:17;;;;;;;17.40;4.05;;;7.10;90.50;;;;;;5080282;28;20020;-66
2021/12/07 13:47:44;;;;;;;10.40;2.83;;;7.00;90.70;;;;;;5091611;28;20468;-66
2021/12/07 13:50:22;;;;;;;9.90;3.20;;;6.90;91.20;;;;;;5091696;28;20035;-66
2021/12/07 13:53:16;;;;;;;12.25;3.13;;;6.90;91.50;;;;;;5092032;28;20017;-66
2021/12/07 13:55:43;;;;;;;12.98;3.20;;;6.90;91.70;;;;;;5093392;28;20055;-66
2021/12/07 13:58:18;;;;;;;15.57;3.00;;;6.80;92.00;;;;;;5093231;28;20039;-68
2021/12/07 14:00:44;;;;;;;17.60;3.35;;;6.70;92.30;;;;;;5074790;28;20392;-68
2021/12/07 14:03:13;;;;;;;14.63;3.00;;;6.60;92.80;;;;;;5092431;28;20024;-68
2021/12/07 14:05:42;;;;;;;13.00;3.17;;;6.50;93.10;;;;;;5092987;28;20021;-67
2021/12/07 14:08:13;;;;;;;12.30;2.65;;;6.40;93.60;;;;;;5091409;28;20075;-67
2021/12/07 14:10:45;;;;;;;13.00;3.15;;;6.30;94.10;;;;;;5091229;28;20040;-67
2021/12/07 14:13:22;;;;;;;12.90;3.15;;;6.20;94.50;;;;;;5071260;28;20476;-67
2021/12/07 14:16:06;;;;;;;;;;;;;;;;;;;;;
2021/12/07 14:18:57;;;;;;;14.73;4.28;;;6.00;95.30;;;;;;5087937;28;20034;-62
2021/12/07 14:21:22;;;;;;;11.63;3.42;;;6.00;95.90;;;;;;5073640;28;20032;-61
2021/12/07 14:24:02;;;;;;;17.25;4.32;;;5.80;96.20;;;;;;5088483;28;20028;-62
2021/12/07 14:26:28;;;;;;;8.90;2.42;;;5.80;96.50;;;;;;5089474;28;20089;-61
2021/12/07 14:29:01;;;;;;;13.18;3.03;;;5.70;96.80;;;;;;5072800;28;20020;-62
2021/12/07 14:31:33;;;;;;;12.20;2.53;;;5.70;97.00;;;;;;5088795;28;20051;-61
2021/12/07 14:34:01;;;;;;;15.05;3.90;;;5.70;97.20;;;;;;5092728;28;20059;-61
2021/12/07 14:36:36;;;;;;;8.90;2.58;;;5.60;97.40;;;;;;5090457;28;20031;-61
2021/12/07 14:39:28;;;;;;;13.13;2.72;;;5.60;97.70;;;;;;5079312;28;20086;-61
2021/12/07 14:41:56;;;;;;;16.35;3.20;;;5.60;97.80;;;;;;5078741;28;20383;-61
2021/12/07 14:45:09;;;;;;;;;;;;;;;;;;;;;
2021/12/07 14:47:35;;;;;;;15.02;3.90;;;5.50;98.30;;;;;;5068852;28;20025;-62
2021/12/07 14:50:01;;;;;;;11.25;2.75;;;5.40;98.60;;;;;;5076848;28;20111;-61
2021/12/07 14:52:33;;;;;;;15.10;3.17;;;5.30;98.70;;;;;;5072978;28;20070;-61
2021/12/07 14:55:36;;;;;;;19.50;3.47;;;5.30;98.80;;;;;;5070993;28;20028;-61
2021/12/07 14:58:03;;;;;;;13.05;2.53;;;5.30;99.00;;;;;;5074119;28;20032;-61
2021/12/07 15:00:29;;;;;;;10.82;2.83;;;5.20;99.20;;;;;;5085841;28;20081;-61
2021/12/07 15:02:54;;;;;;;11.95;3.10;;;5.20;99.30;;;;;;5092324;28;20028;-61
2021/12/07 15:05:20;;;;;;;21.17;3.63;;;5.20;99.40;;;;;;5092384;28;20024;-61
2021/12/07 15:07:45;;;;;;;11.32;3.97;;;5.10;99.40;;;;;;5092351;28;20028;-61
2021/12/07 15:10:25;;;;;;;10.02;2.85;;;5.10;99.50;;;;;;5092260;28;20135;-61
2021/12/07 15:12:59;;;;;;;;;;;5.10;99.40;;;;;;5085341;28;20043;-62
2021/12/07 15:15:38;;;;;;;15.73;3.55;;;5.10;99.40;;;;;;5073733;28;19910;-62
2021/12/07 15:18:10;;;;;;;11.18;2.60;;;5.00;99.50;;;;;;5091852;28;20051;-61
2021/12/07 15:23:48;;;;;;;12.07;2.83;;;5.00;99.30;;;;;;5094140;28;20028;-61
2021/12/07 15:26:15;;;;;;;17.60;2.85;;;5.00;99.30;;;;;;5094446;28;20020;-61
2021/12/07 15:29:16;;;;;;;9.45;2.55;;;5.00;99.30;;;;;;5088328;28;20020;-61
2021/12/07 15:31:45;;;;;;;9.45;2.80;;;5.00;99.20;;;;;;5094613;28;20035;-61
2021/12/07 15:34:16;;;;;;;13.95;3.20;;;5.00;99.20;;;;;;5094822;28;20032;-62
2021/12/07 15:36:52;;;;;;;13.13;3.45;;;5.00;99.20;;;;;;5077453;28;20533;-61
2021/12/07 15:39:21;;;;;;;11.02;3.22;;;5.00;99.30;;;;;;5077304;28;20051;-61
2021/12/07 15:41:59;;;;;;;12.80;3.05;;;4.90;99.30;;;;;;5090458;28;20107;-61
2021/12/07 15:44:26;;;;;;;8.27;2.67;;;4.90;99.30;;;;;;5088460;28;20469;-61
2021/12/07 15:47:16;;;;;;;14.55;3.10;;;4.90;99.30;;;;;;5094117;28;20016;-61
2021/12/07 15:49:51;;;;;;;12.63;2.33;;;4.90;99.20;;;;;;5077028;28;20043;-61
2021/12/07 15:52:21;;;;;;;11.07;2.25;;;4.90;99.30;;;;;;5095149;28;20357;-61
2021/12/07 15:55:07;;;;;;;12.60;4.00;;;4.90;99.40;;;;;;5095571;28;20086;-61
2021/12/07 15:57:56;;;;;;;14.25;2.60;;;4.90;99.40;;;;;;5087320;28;20016;-61